Time;durP1;ratioP1;P1;durP2;ratioP2;P2;SDS_P1;SDS_P2;PMS_P1;PMS_P2;Temp;Humidity;BMP_temperature;BMP_pressure;BME280_temperature;BME280_humidity;BME280_pressure;Samples;Min_cycle;Max_cycle;Signal;HPM_P1;HPM_P2
2023/03/17 00:00:32;;;;;;;1.50;0.60;;;10.50;66.70;;;;;;2513060;54;20953;-69
2023/03/17 00:02:58;;;;;;;1.50;0.60;;;10.50;66.70;;;;;;2280400;55;21540;-67
2023/03/17 00:05:28;;;;;;;1.58;0.55;;;10.60;66.80;;;;;;2509949;54;21966;-69
2023/03/17 00:07:54;;;;;;;1.33;0.55;;;10.60;66.80;;;;;;2279017;55;21037;-70
2023/03/17 00:10:26;;;;;;;1.52;0.50;;;10.60;66.80;;;;;;2279600;55;20946;-69
2023/03/17 00:12:54;;;;;;;1.92;0.70;;;10.60;67.50;;;;;;2280729;55;21011;-67
2023/03/17 00:15:20;;;;;;;1.92;0.52;;;10.60;66.80;;;;;;2276269;55;20930;-68
2023/03/17 00:17:47;;;;;;;1.05;0.43;;;10.60;66.70;;;;;;2279474;55;21057;-66
2023/03/17 00:20:27;;;;;;;1.92;0.70;;;10.60;66.60;;;;;;2279340;55;21290;-67
2023/03/17 00:23:03;;;;;;;1.48;0.60;;;10.60;66.60;;;;;;2512627;54;21005;-69
2023/03/17 00:25:31;;;;;;;1.17;0.57;;;10.60;66.30;;;;;;2513379;54;20933;-69
2023/03/17 00:28:00;;;;;;;2.22;0.62;;;10.60;66.60;;;;;;2513279;54;21066;-70
2023/03/17 00:30:26;;;;;;;1.50;0.60;;;10.60;66.60;;;;;;2280143;55;21081;-68
2023/03/17 00:32:56;;;;;;;2.20;0.75;;;10.60;66.60;;;;;;2512419;54;21002;-67
2023/03/17 00:35:24;;;;;;;0.73;0.40;;;10.50;66.40;;;;;;2278048;55;20997;-67
2023/03/17 00:37:52;;;;;;;1.55;0.62;;;10.60;66.60;;;;;;2277829;55;21120;-70
2023/03/17 00:40:31;;;;;;;1.65;0.55;;;10.50;66.50;;;;;;2278115;55;21436;-68
2023/03/17 00:43:02;;;;;;;0.88;0.50;;;10.50;66.00;;;;;;2278753;55;21556;-68
2023/03/17 00:45:28;;;;;;;1.30;0.60;;;10.50;66.40;;;;;;2278872;55;20990;-67
2023/03/17 00:47:57;;;;;;;1.85;0.70;;;10.50;66.40;;;;;;2512055;54;20935;-66
2023/03/17 00:50:26;;;;;;;2.30;0.65;;;10.50;66.30;;;;;;2278427;55;22120;-68
2023/03/17 00:52:53;;;;;;;1.92;0.60;;;10.40;66.20;;;;;;2278695;55;20997;-69
2023/03/17 00:55:23;;;;;;;2.45;1.00;;;10.40;66.20;;;;;;2511581;54;21045;-67
2023/03/17 00:57:49;;;;;;;2.70;0.80;;;10.40;66.20;;;;;;2278064;55;21144;-69
2023/03/17 01:00:19;;;;;;;3.62;1.40;;;10.40;66.30;;;;;;2278374;55;21819;-67
2023/03/17 01:02:45;;;;;;;4.70;1.50;;;10.40;66.30;;;;;;2278339;55;21021;-67
2023/03/17 01:05:12;;;;;;;3.30;1.40;;;10.30;66.20;;;;;;2509986;54;21451;-68
2023/03/17 01:07:38;;;;;;;2.87;1.20;;;10.30;66.20;;;;;;2277937;55;21029;-70
2023/03/17 01:10:26;;;;;;;3.30;1.33;;;10.30;66.30;;;;;;2511315;54;21002;-68
2023/03/17 01:12:54;;;;;;;2.65;0.93;;;10.20;65.20;;;;;;2511316;54;20952;-68
2023/03/17 01:15:21;;;;;;;2.33;0.90;;;10.30;66.30;;;;;;2511638;54;21000;-66
2023/03/17 01:17:49;;;;;;;1.33;0.60;;;10.20;66.30;;;;;;2277063;55;21492;-70
2023/03/17 01:20:23;;;;;;;1.40;0.62;;;10.20;66.40;;;;;;2511673;54;20946;-67
2023/03/17 01:22:50;;;;;;;1.48;0.70;;;10.20;66.40;;;;;;2511624;54;21513;-69
2023/03/17 01:25:20;;;;;;;2.00;0.70;;;10.10;66.40;;;;;;2277471;55;20961;-66
2023/03/17 01:27:46;;;;;;;1.65;0.75;;;10.10;66.40;;;;;;2511685;54;20960;-69
2023/03/17 01:30:30;;;;;;;2.35;0.60;;;10.10;66.50;;;;;;2278259;55;21030;-68
2023/03/17 01:32:57;;;;;;;1.50;0.70;;;10.10;66.10;;;;;;2513352;54;20958;-70
2023/03/17 01:35:24;;;;;;;2.50;0.57;;;10.10;66.60;;;;;;2506872;54;22096;-68
2023/03/17 01:37:54;;;;;;;1.92;0.80;;;10.10;66.70;;;;;;2277871;55;20953;-70
2023/03/17 01:40:22;;;;;;;1.67;0.62;;;10.10;66.80;;;;;;2278367;55;21064;-67
2023/03/17 01:42:53;;;;;;;2.40;0.80;;;10.10;66.80;;;;;;2512122;54;21973;-70
2023/03/17 01:45:57;;;;;;;2.10;0.70;;;10.10;66.70;;;;;;2279543;55;20956;-66
2023/03/17 01:48:23;;;;;;;1.50;0.65;;;10.10;66.20;;;;;;2512325;54;21066;-67
2023/03/17 01:50:50;;;;;;;1.75;0.60;;;10.20;67.30;;;;;;2278824;55;21949;-70
2023/03/17 01:53:16;;;;;;;1.62;0.60;;;10.20;67.40;;;;;;2281644;55;21058;-69
2023/03/17 01:55:44;;;;;;;2.15;0.70;;;10.20;67.50;;;;;;2508447;54;21037;-71
2023/03/17 01:58:11;;;;;;;1.35;0.60;;;10.20;67.50;;;;;;2512187;54;20922;-68
2023/03/17 02:00:38;;;;;;;1.52;0.52;;;10.30;68.40;;;;;;2278965;55;21117;-69
2023/03/17 02:03:08;;;;;;;1.60;0.60;;;10.30;67.70;;;;;;2279469;55;21033;-68
2023/03/17 02:05:35;;;;;;;1.33;0.57;;;10.30;67.40;;;;;;2279132;55;21939;-69
2023/03/17 02:08:11;;;;;;;2.10;0.70;;;10.40;67.70;;;;;;2278865;55;20966;-68
2023/03/17 02:10:37;;;;;;;1.40;0.60;;;10.40;67.20;;;;;;2512107;54;20989;-69
2023/03/17 02:13:05;;;;;;;0.98;0.43;;;10.40;67.70;;;;;;2512546;54;21746;-67
2023/03/17 02:15:47;;;;;;;2.50;0.62;;;10.50;67.70;;;;;;2279002;55;21156;-68
2023/03/17 02:18:13;;;;;;;1.20;0.60;;;10.50;67.10;;;;;;2278210;55;20930;-67
2023/03/17 02:22:14;;;;;;;2.47;0.65;;;10.50;67.50;;;;;;2509080;54;20964;-69
2023/03/17 02:24:43;;;;;;;1.67;0.60;;;10.50;65.70;;;;;;2278634;55;21129;-69
2023/03/17 02:27:21;;;;;;;1.62;0.70;;;10.50;67.30;;;;;;2276949;55;20952;-67
2023/03/17 02:29:48;;;;;;;2.20;0.60;;;10.50;67.20;;;;;;2278793;55;20954;-69
2023/03/17 02:32:16;;;;;;;2.10;0.60;;;10.50;67.20;;;;;;2278767;55;21013;-69
2023/03/17 02:34:48;;;;;;;1.80;0.70;;;10.30;67.00;;;;;;2278481;55;21057;-66
2023/03/17 02:37:15;;;;;;;1.58;0.60;;;10.50;67.10;;;;;;2512265;54;21060;-68
2023/03/17 02:39:41;;;;;;;1.60;0.60;;;10.50;66.90;;;;;;2278540;55;21006;-70
2023/03/17 02:42:08;;;;;;;1.95;0.70;;;10.50;66.80;;;;;;2278776;55;22125;-69
2023/03/17 02:44:36;;;;;;;1.98;0.68;;;10.40;66.60;;;;;;2511274;54;21059;-69
2023/03/17 02:47:03;;;;;;;1.92;0.80;;;10.50;66.70;;;;;;2278969;55;20965;-67
2023/03/17 02:49:29;;;;;;;0.82;0.43;;;10.40;66.70;;;;;;2506580;54;21063;-66
2023/03/17 02:51:56;;;;;;;2.10;0.70;;;10.40;66.60;;;;;;2278114;55;21073;-67
2023/03/17 02:54:22;;;;;;;1.60;0.62;;;10.40;66.60;;;;;;2278750;55;21089;-66
2023/03/17 02:56:48;;;;;;;1.95;0.70;;;10.40;66.60;;;;;;2278446;55;20933;-68
2023/03/17 02:59:15;;;;;;;1.70;0.70;;;10.40;66.60;;;;;;2278246;55;21009;-67
2023/03/17 03:01:41;;;;;;;1.60;0.60;;;10.30;66.50;;;;;;2512542;54;21370;-68
2023/03/17 03:04:07;;;;;;;1.52;0.60;;;10.30;66.50;;;;;;2279053;55;21126;-68
2023/03/17 03:06:34;;;;;;;1.40;0.50;;;10.30;66.60;;;;;;2279722;55;20985;-68
2023/03/17 03:09:00;;;;;;;1.67;0.55;;;10.30;66.60;;;;;;2279575;55;20942;-70
2023/03/17 03:11:28;;;;;;;2.12;0.60;;;10.30;66.60;;;;;;2278587;55;20965;-69
2023/03/17 03:13:55;;;;;;;1.45;0.50;;;10.30;66.60;;;;;;2278089;55;21023;-67
2023/03/17 03:16:21;;;;;;;1.00;0.47;;;10.20;66.40;;;;;;2277885;55;20975;-70
2023/03/17 03:18:51;;;;;;;2.00;0.80;;;10.20;67.10;;;;;;2278409;55;20930;-69
2023/03/17 03:21:19;;;;;;;1.45;0.50;;;10.20;66.40;;;;;;2512800;54;21029;-67
2023/03/17 03:23:45;;;;;;;1.55;0.45;;;10.20;66.40;;;;;;2509571;54;21572;-68
2023/03/17 03:26:11;;;;;;;1.50;0.55;;;10.20;66.40;;;;;;2276637;55;20941;-68
2023/03/17 03:28:40;;;;;;;1.37;0.60;;;10.20;66.50;;;;;;2513025;54;21037;-69
2023/03/17 03:31:06;;;;;;;1.58;0.65;;;10.10;66.30;;;;;;2279007;55;21505;-69
2023/03/17 03:33:33;;;;;;;1.87;0.88;;;10.10;67.00;;;;;;2512683;54;20945;-67
2023/03/17 03:35:59;;;;;;;0.98;0.50;;;10.10;66.30;;;;;;2281098;55;20992;-68
2023/03/17 03:38:26;;;;;;;1.90;0.70;;;10.10;66.20;;;;;;2508253;54;20906;-66
2023/03/17 03:40:52;;;;;;;1.98;0.90;;;10.10;66.20;;;;;;2512628;54;21140;-68
2023/03/17 03:43:20;;;;;;;1.77;0.70;;;10.00;66.00;;;;;;2512931;54;21520;-67
2023/03/17 03:45:49;;;;;;;1.40;0.50;;;10.00;66.00;;;;;;2513119;54;21063;-70
2023/03/17 03:48:16;;;;;;;1.52;0.57;;;10.00;66.10;;;;;;2279438;55;21120;-66
2023/03/17 03:50:44;;;;;;;2.75;0.60;;;9.90;67.20;;;;;;2512781;54;20998;-67
2023/03/17 03:53:10;;;;;;;1.77;0.55;;;9.90;67.20;;;;;;2512798;54;21709;-66
2023/03/17 03:55:36;;;;;;;2.60;0.80;;;9.90;67.20;;;;;;2512829;54;21020;-67
2023/03/17 03:58:03;;;;;;;1.77;0.70;;;9.80;67.00;;;;;;2512327;54;20977;-67
2023/03/17 04:00:30;;;;;;;1.92;0.60;;;9.80;66.90;;;;;;2279472;55;21006;-69
2023/03/17 04:02:57;;;;;;;1.05;0.50;;;9.80;67.00;;;;;;2279403;55;20942;-67
2023/03/17 04:05:24;;;;;;;1.55;0.60;;;9.80;67.00;;;;;;2512901;54;21058;-67
2023/03/17 04:07:50;;;;;;;4.00;0.60;;;9.70;66.90;;;;;;2279267;55;21565;-70
2023/03/17 04:10:17;;;;;;;1.70;0.65;;;9.70;67.00;;;;;;2279050;55;21555;-70
2023/03/17 04:12:44;;;;;;;1.40;0.57;;;9.70;67.00;;;;;;2279604;55;20973;-69
2023/03/17 04:15:16;;;;;;;1.15;0.47;;;9.60;67.00;;;;;;2278931;55;21506;-66
2023/03/17 04:17:42;;;;;;;2.75;0.60;;;9.60;66.90;;;;;;2279183;55;20980;-67
2023/03/17 04:20:13;;;;;;;0.98;0.50;;;9.60;67.10;;;;;;2512157;54;20949;-68
2023/03/17 04:22:43;;;;;;;1.55;0.70;;;9.60;67.10;;;;;;2278886;55;21482;-66
2023/03/17 04:25:10;;;;;;;1.50;0.60;;;9.60;67.20;;;;;;2511910;54;21109;-67
2023/03/17 04:27:36;;;;;;;1.45;0.60;;;9.60;67.20;;;;;;2512340;54;20954;-66
2023/03/17 04:30:04;;;;;;;1.55;0.60;;;9.50;67.10;;;;;;2278663;55;22017;-67
2023/03/17 04:32:30;;;;;;;1.58;0.60;;;9.50;67.20;;;;;;2277142;55;21007;-67
2023/03/17 04:34:57;;;;;;;1.60;0.70;;;9.50;67.20;;;;;;2276411;55;21847;-69
2023/03/17 04:37:23;;;;;;;1.45;0.57;;;9.50;67.30;;;;;;2512818;54;21073;-66
2023/03/17 04:39:51;;;;;;;1.77;0.60;;;9.50;67.40;;;;;;2278884;55;21112;-66
2023/03/17 04:42:17;;;;;;;1.90;0.70;;;9.50;67.40;;;;;;2512629;54;20966;-67
2023/03/17 04:44:43;;;;;;;1.77;0.70;;;9.40;67.40;;;;;;2278812;55;20969;-69
2023/03/17 04:47:10;;;;;;;2.30;0.80;;;9.40;67.40;;;;;;2279605;55;21335;-68
2023/03/17 04:49:36;;;;;;;2.30;0.75;;;9.40;67.40;;;;;;2278743;55;20972;-70
2023/03/17 04:52:03;;;;;;;1.83;0.70;;;9.40;67.40;;;;;;2279111;55;21017;-67
2023/03/17 04:54:29;;;;;;;2.53;0.98;;;9.40;67.40;;;;;;2513154;54;21001;-68
2023/03/17 04:56:55;;;;;;;2.45;0.80;;;9.40;67.40;;;;;;2279564;55;21005;-67
2023/03/17 04:59:22;;;;;;;2.62;0.98;;;9.40;67.50;;;;;;2511658;54;20999;-69
2023/03/17 05:01:48;;;;;;;2.62;1.02;;;9.40;67.50;;;;;;2507724;54;20970;-67
2023/03/17 05:04:15;;;;;;;2.15;0.80;;;9.40;67.50;;;;;;2279606;55;20990;-67
2023/03/17 05:06:57;;;;;;;1.48;0.60;;;9.40;67.50;;;;;;2512610;54;20985;-69
2023/03/17 05:09:23;;;;;;;1.80;0.70;;;9.40;67.50;;;;;;2513138;54;21944;-68
2023/03/17 05:11:51;;;;;;;1.80;0.80;;;9.40;67.40;;;;;;2513220;54;20986;-68
2023/03/17 05:14:17;;;;;;;2.90;1.27;;;9.40;67.50;;;;;;2279188;55;21065;-67
2023/03/17 05:16:48;;;;;;;2.78;1.15;;;9.40;67.40;;;;;;2512096;54;21089;-67
2023/03/17 05:19:15;;;;;;;2.87;1.00;;;9.40;67.30;;;;;;2513355;54;20941;-68
2023/03/17 05:21:45;;;;;;;2.60;1.20;;;9.30;67.20;;;;;;2279415;55;20957;-70
2023/03/17 05:24:11;;;;;;;2.45;0.80;;;9.30;67.30;;;;;;2513575;54;20966;-67
2023/03/17 05:26:40;;;;;;;2.42;0.90;;;9.30;67.20;;;;;;2513329;54;20994;-69
2023/03/17 05:29:10;;;;;;;4.53;1.23;;;9.10;67.00;;;;;;2279339;55;20997;-67
2023/03/17 05:31:37;;;;;;;3.40;1.08;;;9.30;67.10;;;;;;2512824;54;21017;-69
2023/03/17 05:34:04;;;;;;;2.50;1.00;;;9.30;67.10;;;;;;2279333;55;21129;-70
2023/03/17 05:36:32;;;;;;;1.98;0.70;;;9.20;67.10;;;;;;2512406;54;20978;-68
2023/03/17 05:38:58;;;;;;;2.30;0.93;;;9.20;67.00;;;;;;2280464;55;20990;-70
2023/03/17 05:41:25;;;;;;;2.37;0.90;;;9.20;67.00;;;;;;2282217;55;20966;-66
2023/03/17 05:43:52;;;;;;;1.75;0.90;;;9.10;66.90;;;;;;2280536;55;21450;-67
2023/03/17 05:46:19;;;;;;;2.72;1.00;;;9.10;66.80;;;;;;2280008;55;22237;-67
2023/03/17 05:48:46;;;;;;;2.22;0.98;;;9.10;66.80;;;;;;2278921;55;20950;-67
2023/03/17 05:51:12;;;;;;;2.50;0.95;;;9.10;67.00;;;;;;2279420;55;21580;-67
2023/03/17 05:53:39;;;;;;;3.33;1.17;;;9.00;66.50;;;;;;2513156;54;21508;-69
2023/03/17 05:56:08;;;;;;;3.58;0.90;;;9.00;66.60;;;;;;2512816;54;20974;-67
2023/03/17 05:58:34;;;;;;;2.17;1.00;;;8.90;66.50;;;;;;2279917;55;21467;-69
2023/03/17 06:01:00;;;;;;;2.53;0.90;;;8.90;66.50;;;;;;2279237;55;21199;-66
2023/03/17 06:03:27;;;;;;;2.03;0.80;;;8.80;66.50;;;;;;2280059;55;20973;-68
2023/03/17 06:05:55;;;;;;;2.25;0.90;;;8.80;66.60;;;;;;2513153;54;21027;-69
2023/03/17 06:08:21;;;;;;;2.10;0.93;;;8.80;66.70;;;;;;2279295;55;21050;-65
2023/03/17 06:10:48;;;;;;;2.30;1.02;;;8.70;66.70;;;;;;2511421;54;20941;-67
2023/03/17 06:13:15;;;;;;;2.70;1.05;;;8.70;66.70;;;;;;2513120;54;20969;-67
2023/03/17 06:15:43;;;;;;;2.40;0.90;;;8.70;66.60;;;;;;2513635;54;21040;-68
2023/03/17 06:18:10;;;;;;;2.20;0.90;;;8.70;66.60;;;;;;2281092;55;22178;-66
2023/03/17 06:20:36;;;;;;;2.22;0.73;;;8.60;66.70;;;;;;2508594;54;22013;-66
2023/03/17 06:23:03;;;;;;;2.33;1.10;;;8.60;66.80;;;;;;2279595;55;21409;-68
2023/03/17 06:25:32;;;;;;;2.53;0.90;;;8.60;66.80;;;;;;2512780;54;21451;-66
2023/03/17 06:28:02;;;;;;;1.95;0.77;;;8.50;66.80;;;;;;2513280;54;20950;-70
2023/03/17 06:30:29;;;;;;;2.37;0.70;;;8.50;66.90;;;;;;2513132;54;20961;-67
2023/03/17 06:32:55;;;;;;;2.35;0.82;;;8.50;66.90;;;;;;2512848;54;21057;-69
2023/03/17 06:35:24;;;;;;;1.60;0.60;;;8.50;67.00;;;;;;2279689;55;20982;-67
2023/03/17 06:37:51;;;;;;;1.70;0.70;;;8.50;67.10;;;;;;2279964;55;20954;-68
2023/03/17 06:40:18;;;;;;;2.30;0.73;;;8.50;67.20;;;;;;2510245;54;20984;-67
2023/03/17 06:42:45;;;;;;;1.73;0.73;;;8.30;67.10;;;;;;2509267;54;20949;-67
2023/03/17 06:45:11;;;;;;;2.17;0.82;;;8.50;67.40;;;;;;2279892;55;20970;-67
2023/03/17 06:47:38;;;;;;;3.37;0.90;;;8.40;67.50;;;;;;2284598;55;21147;-69
2023/03/17 06:50:05;;;;;;;2.47;1.00;;;8.50;67.70;;;;;;2275092;55;20962;-67
2023/03/17 06:52:32;;;;;;;2.22;1.05;;;8.50;67.80;;;;;;2512594;54;21954;-68
2023/03/17 06:54:58;;;;;;;2.45;1.15;;;8.40;67.80;;;;;;2513700;54;21833;-66
2023/03/17 06:57:25;;;;;;;2.80;1.35;;;8.50;68.00;;;;;;2512540;54;22313;-70
2023/03/17 06:59:51;;;;;;;2.90;1.33;;;8.50;68.10;;;;;;2279345;55;21021;-68
2023/03/17 07:02:17;;;;;;;3.45;1.30;;;8.50;68.20;;;;;;2513672;54;21960;-67
2023/03/17 07:04:45;;;;;;;2.50;1.25;;;8.50;68.30;;;;;;2505577;54;20942;-67
2023/03/17 07:07:15;;;;;;;3.40;1.65;;;8.50;68.40;;;;;;2278129;55;20978;-68
2023/03/17 07:09:41;;;;;;;3.62;2.03;;;8.60;68.60;;;;;;2512491;54;20998;-67
2023/03/17 07:12:09;;;;;;;4.93;2.10;;;8.60;68.70;;;;;;2513723;54;21978;-69
2023/03/17 07:14:36;;;;;;;4.12;1.70;;;8.70;68.90;;;;;;2279631;55;20954;-66
2023/03/17 07:17:03;;;;;;;3.20;1.52;;;8.70;69.00;;;;;;2279615;55;21112;-68
2023/03/17 07:19:30;;;;;;;3.47;1.80;;;8.70;69.10;;;;;;2279868;55;21453;-69
2023/03/17 07:21:56;;;;;;;4.18;1.77;;;8.80;69.30;;;;;;2512761;54;21013;-68
2023/03/17 07:24:25;;;;;;;5.90;2.20;;;8.80;69.40;;;;;;2279822;55;21025;-69
2023/03/17 07:26:52;;;;;;;4.00;1.80;;;8.80;69.30;;;;;;2506285;54;20962;-67
2023/03/17 07:29:21;;;;;;;3.97;2.20;;;8.90;69.60;;;;;;2511872;54;21013;-67
2023/03/17 07:31:48;;;;;;;4.30;2.33;;;9.00;69.70;;;;;;2500980;54;20962;-70
2023/03/17 07:34:15;;;;;;;4.43;2.40;;;9.00;69.70;;;;;;2278176;55;20970;-67
2023/03/17 07:36:41;;;;;;;6.05;2.60;;;9.10;69.80;;;;;;2513526;54;21808;-68
2023/03/17 07:39:07;;;;;;;4.93;2.80;;;9.10;69.80;;;;;;2279640;55;21010;-67
2023/03/17 07:41:37;;;;;;;6.85;2.75;;;9.20;69.90;;;;;;2513205;54;20978;-67
2023/03/17 07:44:04;;;;;;;4.90;2.40;;;9.20;69.90;;;;;;2279400;56;21009;-66
2023/03/17 07:46:31;;;;;;;3.58;1.90;;;9.30;70.00;;;;;;2513409;54;20994;-67
2023/03/17 07:48:57;;;;;;;3.30;1.80;;;9.30;70.00;;;;;;2513158;54;20953;-68
2023/03/17 07:51:26;;;;;;;4.80;2.60;;;9.40;70.10;;;;;;2279709;55;21161;-69
2023/03/17 07:53:59;;;;;;;6.00;3.20;;;9.50;70.20;;;;;;2279574;55;20969;-66
2023/03/17 07:56:26;;;;;;;3.85;2.40;;;9.50;70.20;;;;;;2513323;54;21036;-70
2023/03/17 07:58:52;;;;;;;4.10;2.42;;;9.60;70.40;;;;;;2513461;54;21082;-69
2023/03/17 08:01:18;;;;;;;4.90;2.37;;;9.50;70.30;;;;;;2278133;55;21107;-70
2023/03/17 08:03:44;;;;;;;4.03;2.00;;;9.70;70.60;;;;;;2278673;55;21914;-67
2023/03/17 08:06:12;;;;;;;7.05;2.65;;;9.70;70.70;;;;;;2512983;54;20954;-68
2023/03/17 08:08:39;;;;;;;4.22;2.25;;;9.80;70.70;;;;;;2279476;55;21899;-70
2023/03/17 08:11:06;;;;;;;6.95;3.10;;;9.90;70.90;;;;;;2513373;54;21010;-68
2023/03/17 08:13:34;;;;;;;5.75;3.00;;;10.00;70.00;;;;;;2279847;55;21113;-68
2023/03/17 08:16:06;;;;;;;5.37;2.25;;;10.10;70.20;;;;;;2512844;54;20958;-68
2023/03/17 08:18:32;;;;;;;4.75;2.10;;;10.20;70.30;;;;;;2509475;54;20943;-68
2023/03/17 08:20:59;;;;;;;3.85;2.30;;;10.20;70.30;;;;;;2278763;55;20950;-69
2023/03/17 08:23:26;;;;;;;3.67;2.10;;;10.40;70.70;;;;;;2279732;55;21149;-69
2023/03/17 08:26:00;;;;;;;5.43;2.37;;;10.40;70.80;;;;;;2280492;55;21136;-69
2023/03/17 08:28:27;;;;;;;6.25;2.22;;;10.50;70.70;;;;;;2279895;55;21113;-68
2023/03/17 08:30:54;;;;;;;4.15;2.05;;;10.70;71.10;;;;;;2282674;55;21387;-68
2023/03/17 08:33:22;;;;;;;4.85;2.62;;;10.80;71.30;;;;;;2276227;55;21509;-70
2023/03/17 08:35:49;;;;;;;4.80;2.60;;;10.90;71.40;;;;;;2512609;54;20942;-68
2023/03/17 08:38:15;;;;;;;5.45;2.60;;;11.00;71.70;;;;;;2513699;54;20945;-69
2023/03/17 08:40:42;;;;;;;4.72;2.37;;;11.10;71.70;;;;;;2279351;55;21069;-69
2023/03/17 08:43:11;;;;;;;5.15;2.83;;;11.20;71.90;;;;;;2279625;55;20936;-68
2023/03/17 08:45:39;;;;;;;5.35;2.30;;;11.40;72.10;;;;;;2513486;54;20950;-68
2023/03/17 08:48:06;;;;;;;4.95;2.62;;;11.50;72.40;;;;;;2279605;55;20922;-69
2023/03/17 08:50:33;;;;;;;5.37;2.40;;;11.50;72.60;;;;;;2279605;55;20950;-68
2023/03/17 08:53:00;;;;;;;4.93;2.50;;;11.80;73.10;;;;;;2279625;55;21565;-69
2023/03/17 08:55:30;;;;;;;5.37;2.35;;;11.90;73.50;;;;;;2513946;54;21046;-68
2023/03/17 08:57:56;;;;;;;5.80;3.00;;;12.10;73.70;;;;;;2278237;55;20986;-68
2023/03/17 09:00:23;;;;;;;6.93;2.53;;;12.30;74.30;;;;;;2282211;55;21153;-69
2023/03/17 09:02:49;;;;;;;5.53;2.58;;;12.50;74.60;;;;;;2274949;55;21987;-69
2023/03/17 09:05:16;;;;;;;4.87;2.90;;;12.60;74.60;;;;;;2512169;54;21096;-68
2023/03/17 09:07:42;;;;;;;4.97;2.90;;;12.80;74.80;;;;;;2274647;55;20938;-68
2023/03/17 09:10:10;;;;;;;4.75;2.28;;;13.00;74.90;;;;;;2279919;55;21375;-71
2023/03/17 09:12:37;;;;;;;4.35;2.47;;;13.20;75.10;;;;;;2512840;54;20922;-71
2023/03/17 09:15:05;;;;;;;3.75;2.05;;;13.40;75.20;;;;;;2513129;54;20962;-69
2023/03/17 09:17:32;;;;;;;6.05;2.25;;;13.60;75.20;;;;;;2513030;54;21984;-70
2023/03/17 09:19:58;;;;;;;5.47;2.65;;;13.80;75.30;;;;;;2512749;54;20966;-70
2023/03/17 09:22:24;;;;;;;3.35;1.85;;;14.00;75.60;;;;;;2513258;54;21960;-71
2023/03/17 09:24:52;;;;;;;3.97;1.90;;;14.20;75.70;;;;;;2513683;54;20986;-70
2023/03/17 09:27:19;;;;;;;4.93;1.85;;;14.40;75.70;;;;;;2279649;55;21473;-69
2023/03/17 09:29:46;;;;;;;3.67;1.80;;;14.60;75.60;;;;;;2512730;54;21097;-69
2023/03/17 09:32:12;;;;;;;3.67;1.62;;;14.80;75.50;;;;;;2513298;54;20970;-70
2023/03/17 09:34:39;;;;;;;3.67;1.70;;;14.90;75.30;;;;;;2512952;54;21387;-69
2023/03/17 09:37:05;;;;;;;3.78;2.00;;;15.10;75.20;;;;;;2512954;54;20986;-69
2023/03/17 09:39:33;;;;;;;3.60;1.80;;;15.30;75.30;;;;;;2279852;55;20965;-68
2023/03/17 09:42:11;;;;;;;3.47;1.98;;;15.50;75.10;;;;;;2513600;54;21049;-70
2023/03/17 09:44:44;;;;;;;3.60;1.58;;;15.60;73.70;;;;;;2277730;55;21024;-70
2023/03/17 09:54:14;;;;;;;3.50;1.85;;;15.80;74.40;;;;;;2279642;56;20961;-69
2023/03/17 09:56:42;;;;;;;3.15;1.48;;;16.00;73.20;;;;;;2512650;54;20966;-70
2023/03/17 09:59:42;;;;;;;3.83;1.90;;;16.60;74.70;;;;;;2513041;54;21100;-67
2023/03/17 10:02:16;;;;;;;2.83;1.67;;;16.80;71.80;;;;;;2248247;55;1797481;-72
2023/03/17 10:04:44;;;;;;;4.07;1.65;;;16.80;73.20;;;;;;2280191;55;21454;-67
2023/03/17 10:07:11;;;;;;;4.53;2.28;;;16.90;73.90;;;;;;2510091;54;21820;-73
2023/03/17 10:09:57;;;;;;;3.75;1.90;;;17.00;73.50;;;;;;2277208;55;21056;-69
2023/03/17 10:13:59;;;;;;;4.05;2.10;;;17.20;71.50;;;;;;2280086;55;22127;-69
2023/03/17 10:16:47;;;;;;;3.42;1.80;;;17.20;72.10;;;;;;2513479;54;20997;-70
2023/03/17 10:19:37;;;;;;;3.30;1.67;;;17.40;70.90;;;;;;2279125;55;20965;-70
2023/03/17 10:22:16;;;;;;;4.82;2.10;;;17.50;70.50;;;;;;2279623;55;21029;-67
2023/03/17 10:24:46;;;;;;;3.92;2.00;;;17.50;72.30;;;;;;2513288;54;20946;-70
2023/03/17 10:27:12;;;;;;;3.55;1.90;;;17.60;72.40;;;;;;2513902;54;20937;-67
2023/03/17 10:29:42;;;;;;;4.47;2.40;;;17.70;72.80;;;;;;2279214;55;20934;-68
2023/03/17 10:32:12;;;;;;;3.50;2.10;;;17.80;72.70;;;;;;2280335;55;21043;-68
2023/03/17 10:34:40;;;;;;;3.87;2.20;;;17.90;72.70;;;;;;2514158;54;21626;-68
2023/03/17 10:37:21;;;;;;;3.80;2.20;;;18.00;72.40;;;;;;2280985;55;20957;-66
2023/03/17 10:39:50;;;;;;;4.45;2.47;;;18.10;70.40;;;;;;2281452;55;20949;-69
2023/03/17 10:42:22;;;;;;;3.58;1.87;;;18.20;71.70;;;;;;2281671;55;20962;-69
2023/03/17 10:44:59;;;;;;;;;;;18.30;71.00;;;;;;2284862;55;21009;-69
2023/03/17 10:47:32;;;;;;;3.80;1.90;;;18.40;70.00;;;;;;2282055;55;20080;-71
2023/03/17 10:50:24;;;;;;;3.92;2.20;;;18.50;71.60;;;;;;2515064;54;22018;-70
2023/03/17 10:52:53;;;;;;;5.05;2.35;;;18.50;70.00;;;;;;2512565;54;21043;-67
2023/03/17 10:55:21;;;;;;;3.97;2.22;;;18.60;71.50;;;;;;2282667;55;21049;-68
2023/03/17 10:58:35;;;;;;;4.80;2.40;;;18.60;71.30;;;;;;2285009;55;21017;-68
2023/03/17 11:01:07;;;;;;;3.83;2.10;;;18.70;70.30;;;;;;2282544;55;21054;-67
2023/03/17 11:03:37;;;;;;;5.68;2.15;;;18.80;71.40;;;;;;2283927;55;21898;-70
2023/03/17 11:06:08;;;;;;;4.28;2.40;;;18.80;71.10;;;;;;2281425;55;20938;-67
2023/03/17 11:08:41;;;;;;;4.12;2.30;;;18.90;70.50;;;;;;2281981;55;20957;-69
2023/03/17 11:11:20;;;;;;;4.28;2.10;;;18.90;70.50;;;;;;2514240;54;21006;-70
2023/03/17 11:13:48;;;;;;;3.28;2.00;;;19.00;70.60;;;;;;2279742;55;21062;-69
2023/03/17 11:16:22;;;;;;;3.65;2.05;;;19.10;70.70;;;;;;2277286;55;21020;-69
2023/03/17 11:18:51;;;;;;;4.93;2.62;;;19.10;69.40;;;;;;2513959;54;20978;-67
2023/03/17 11:21:26;;;;;;;4.32;2.00;;;19.20;70.20;;;;;;2280340;55;21540;-67
2023/03/17 11:24:18;;;;;;;3.50;1.90;;;19.20;68.90;;;;;;2513310;54;21558;-70
2023/03/17 11:37:12;;;;;;;3.28;1.90;;;19.30;68.40;;;;;;2513416;54;21500;-71
2023/03/17 11:40:04;;;;;;;4.47;1.80;;;19.60;69.10;;;;;;2513291;54;21999;-70
2023/03/17 11:42:40;;;;;;;5.37;1.90;;;19.70;69.70;;;;;;2280528;55;20973;-67
2023/03/17 11:46:30;;;;;;;4.10;1.90;;;19.70;70.70;;;;;;2280126;55;21003;-68
2023/03/17 11:49:31;;;;;;;3.45;1.73;;;19.80;68.40;;;;;;2512473;54;21346;-70
2023/03/17 11:53:46;;;;;;;3.00;1.73;;;19.90;69.20;;;;;;2511417;54;21930;-70
2023/03/17 11:56:19;;;;;;;3.47;1.65;;;19.90;68.50;;;;;;2269217;55;20965;-68
2023/03/17 11:59:00;;;;;;;3.17;1.77;;;20.00;71.00;;;;;;2513352;54;20949;-69
2023/03/17 12:01:31;;;;;;;3.87;1.73;;;20.10;70.60;;;;;;2513662;54;21021;-67
2023/03/17 12:04:17;;;;;;;3.60;2.00;;;20.10;71.40;;;;;;2513788;54;20945;-68
2023/03/17 12:06:49;;;;;;;6.57;2.15;;;20.20;69.60;;;;;;2279745;55;21972;-67
2023/03/17 12:09:45;;;;;;;4.25;2.20;;;20.30;71.20;;;;;;2513645;54;21943;-68
2023/03/17 12:12:13;;;;;;;3.87;2.10;;;20.40;69.10;;;;;;2509817;54;21535;-69
2023/03/17 12:14:47;;;;;;;4.72;2.10;;;20.40;71.40;;;;;;2280146;55;21935;-68
2023/03/17 12:17:22;;;;;;;3.85;2.00;;;20.50;70.70;;;;;;2506481;54;21943;-69
2023/03/17 12:21:32;;;;;;;5.82;2.33;;;20.60;69.90;;;;;;2281394;55;21493;-67
2023/03/17 12:24:39;;;;;;;3.75;1.83;;;20.70;68.00;;;;;;2514013;54;21388;-69
2023/03/17 12:27:47;;;;;;;7.35;1.87;;;20.80;68.40;;;;;;2514120;54;20977;-69
2023/03/17 12:31:16;;;;;;;4.03;1.77;;;20.90;67.60;;;;;;2514051;54;21017;-68
2023/03/17 12:33:48;;;;;;;3.75;1.70;;;21.00;67.90;;;;;;2514183;54;22067;-68
2023/03/17 12:36:15;;;;;;;2.97;1.60;;;21.10;70.70;;;;;;2513584;54;20949;-70
2023/03/17 12:39:00;;;;;;;3.50;2.00;;;21.20;71.40;;;;;;2513689;54;20974;-69
2023/03/17 12:41:55;;;;;;;3.62;1.92;;;21.20;68.20;;;;;;2506277;54;21600;-70
2023/03/17 12:46:11;;;;;;;4.60;1.85;;;21.30;68.60;;;;;;2515006;54;20997;-69
2023/03/17 12:49:12;;;;;;;3.33;1.20;;;21.50;67.50;;;;;;2514947;54;20989;-68
2023/03/17 12:56:34;;;;;;;3.90;1.65;;;21.60;68.50;;;;;;2514381;54;21515;-68
2023/03/17 12:59:08;;;;;;;3.00;1.20;;;21.80;68.20;;;;;;2513901;54;21486;-67
2023/03/17 13:01:42;;;;;;;3.00;1.45;;;22.00;69.90;;;;;;2281665;55;21009;-68
2023/03/17 13:04:31;;;;;;;3.78;1.37;;;22.00;70.30;;;;;;2510616;54;21859;-68
2023/03/17 13:07:11;;;;;;;2.83;1.20;;;22.10;69.20;;;;;;2279149;55;20963;-68
2023/03/17 13:13:27;;;;;;;2.87;1.27;;;22.10;70.00;;;;;;2508789;54;21019;-67
2023/03/17 13:15:57;;;;;;;;;;;22.30;68.20;;;;;;2517370;54;21065;-70
2023/03/17 13:19:25;;;;;;;3.87;0.93;;;22.40;68.50;;;;;;2280946;55;20172;-69
2023/03/17 13:23:56;;;;;;;2.50;1.20;;;22.50;67.90;;;;;;2514253;54;21920;-70
2023/03/17 13:26:57;;;;;;;2.72;1.27;;;22.50;67.70;;;;;;2279198;55;22012;-70
2023/03/17 13:29:45;;;;;;;4.03;1.27;;;22.60;68.00;;;;;;2280035;55;21037;-73
2023/03/17 13:32:30;;;;;;;3.08;1.17;;;22.70;66.70;;;;;;2512765;54;21121;-74
2023/03/17 13:36:34;;;;;;;3.58;1.50;;;22.70;66.90;;;;;;2282754;55;21036;-71
2023/03/17 13:41:14;;;;;;;3.30;1.17;;;22.80;65.90;;;;;;2508197;54;21059;-70
2023/03/17 13:44:04;;;;;;;2.53;0.93;;;22.80;66.30;;;;;;2509346;54;21980;-73
2023/03/17 13:46:47;;;;;;;4.68;1.05;;;22.90;66.40;;;;;;2513509;54;20950;-69
2023/03/17 13:49:35;;;;;;;3.03;1.50;;;22.90;67.60;;;;;;2510167;54;21153;-67